Terminal Aerodrome Forecast
Issued by NWS Melbourne, FL

Home | Current Version | Previous Version | Text Only | Print | Product List | Glossary On
Versions: 1 2 3 4 5 6 7 8 9 10 11 12 13 14 15 16 17 18
000
FTUS42 KMLB 291426 AAA
TAFVRB
TAF AMD
KVRB 291426Z 2914/3012 13011KT P6SM SCT022 SCT029
      TEMPO 2914/2915 BKN029
     FM291500 12017G25KT P6SM SCT025 BKN250
     FM300100 12014KT P6SM SCT020=

USA.gov is the U.S. government's official web portal to all federal, state and local government web resources and services.